Time;durP1;ratioP1;P1;durP2;ratioP2;P2;SDS_P1;SDS_P2;PMS_P1;PMS_P2;Temp;Humidity;BMP_temperature;BMP_pressure;BME280_temperature;BME280_humidity;BME280_pressure;Samples;Min_cycle;Max_cycle;Signal;HPM_P1;HPM_P2
2021/11/25 00:00:24;;;;;;;30.42;18.45;;;;;;;0.01;99.80;99036.06;5040103;28;20060;-64
2021/11/25 00:02:50;;;;;;;36.60;18.42;;;;;;;0.38;100.00;99040.47;5035654;28;20851;-63
2021/11/25 00:05:15;;;;;;;26.02;16.38;;;;;;;0.16;100.00;99039.53;5037502;28;20148;-62
2021/11/25 00:07:41;;;;;;;29.10;18.23;;;;;;;0.10;100.00;99037.63;5042068;28;20219;-63
2021/11/25 00:10:07;;;;;;;29.27;17.38;;;;;;;0.05;99.97;99032.09;5044435;28;20032;-62
2021/11/25 00:12:32;;;;;;;27.42;16.77;;;;;;;0.06;100.00;99023.16;5042329;28;20121;-63
2021/11/25 00:14:58;;;;;;;27.60;18.35;;;;;;;0.00;100.00;99029.16;5042734;28;20554;-63
2021/11/25 00:17:23;;;;;;;29.45;17.80;;;;;;;-0.03;100.00;99014.50;5041301;28;20053;-63
2021/11/25 00:19:49;;;;;;;27.52;16.65;;;;;;;0.09;100.00;99011.44;5042928;28;20029;-63
2021/11/25 00:22:14;;;;;;;32.22;15.70;;;;;;;0.29;100.00;99007.28;5042956;28;20202;-63
2021/11/25 00:24:40;;;;;;;26.42;16.88;;;;;;;0.08;100.00;99002.72;5044824;28;20036;-63
2021/11/25 00:27:06;;;;;;;24.17;14.18;;;;;;;0.08;100.00;98999.28;5042459;28;20048;-62
2021/11/25 00:29:31;;;;;;;28.52;15.23;;;;;;;0.25;100.00;98995.47;5055669;28;20446;-63
2021/11/25 00:31:57;;;;;;;24.25;14.20;;;;;;;0.16;100.00;98996.56;5043053;28;20064;-63
2021/11/25 00:34:22;;;;;;;23.73;15.27;;;;;;;0.34;100.00;98998.81;5040783;28;20487;-62
2021/11/25 00:36:48;;;;;;;28.33;15.27;;;;;;;0.26;100.00;98996.28;5041361;28;20060;-62
2021/11/25 00:39:13;;;;;;;25.40;15.30;;;;;;;0.31;99.79;99009.75;5041480;28;20064;-63
2021/11/25 00:41:39;;;;;;;23.00;14.48;;;;;;;0.27;100.00;98997.91;5043482;28;20585;-63
2021/11/25 00:44:04;;;;;;;22.70;13.82;;;;;;;0.27;99.81;98984.72;5010456;28;20068;-63
2021/11/25 00:46:30;;;;;;;22.15;13.98;;;;;;;0.33;100.00;98982.19;5037502;28;20071;-63
2021/11/25 00:48:55;;;;;;;21.00;13.65;;;;;;;0.41;100.00;98986.56;5041978;28;20067;-63
2021/11/25 00:51:21;;;;;;;25.20;14.65;;;;;;;0.49;99.60;98978.53;5041852;28;20558;-62
2021/11/25 00:53:46;;;;;;;23.90;14.38;;;;;;;0.43;99.25;98981.91;5043418;28;20025;-63
2021/11/25 00:56:12;;;;;;;23.30;14.00;;;;;;;0.44;98.99;98983.53;5042025;28;20072;-62
2021/11/25 00:58:37;;;;;;;23.90;15.88;;;;;;;0.35;99.05;98980.19;5043218;28;20064;-63
2021/11/25 01:01:03;;;;;;;26.17;15.07;;;;;;;0.25;98.49;98981.44;5040238;28;20052;-63
2021/11/25 01:03:29;;;;;;;24.00;15.27;;;;;;;0.01;99.13;98977.28;5040293;28;20068;-63
2021/11/25 01:05:54;;;;;;;26.23;15.70;;;;;;;0.09;99.93;98985.91;5040526;28;20059;-63
2021/11/25 01:08:20;;;;;;;27.25;15.75;;;;;;;0.03;100.00;98986.63;5042163;28;20494;-62
2021/11/25 01:10:45;;;;;;;28.40;15.80;;;;;;;0.05;100.00;98989.91;5041574;28;20045;-62
2021/11/25 01:13:11;;;;;;;22.23;15.57;;;;;;;0.11;100.00;98991.00;5042721;28;20718;-63
2021/11/25 01:15:37;;;;;;;29.50;17.65;;;;;;;0.01;100.00;98993.91;5038585;28;20052;-63
2021/11/25 01:18:07;;;;;;;25.50;16.95;;;;;;;0.02;100.00;98997.34;5041437;28;20150;-63
2021/11/25 01:20:33;;;;;;;24.40;15.40;;;;;;;0.02;100.00;98984.97;5039864;28;20068;-62
2021/11/25 01:23:01;;;;;;;29.13;17.67;;;;;;;0.03;100.00;98997.19;5038475;28;20415;-63
2021/11/25 01:25:26;;;;;;;29.35;17.08;;;;;;;0.07;100.00;98992.34;5038101;28;20039;-62
2021/11/25 01:27:52;;;;;;;28.55;17.92;;;;;;;0.14;100.00;98988.81;5040322;28;20021;-62
2021/11/25 01:30:17;;;;;;;30.58;16.98;;;;;;;0.19;100.00;98990.91;5042033;28;20033;-63
2021/11/25 01:32:43;;;;;;;28.23;16.83;;;;;;;0.31;100.00;98983.38;5039264;28;20464;-63
2021/11/25 01:35:09;;;;;;;28.55;16.98;;;;;;;0.37;100.00;98987.91;5040910;28;20470;-62
2021/11/25 01:37:36;;;;;;;25.27;15.73;;;;;;;0.39;100.00;98988.53;5038931;28;20104;-62
2021/11/25 01:40:03;;;;;;;26.83;15.48;;;;;;;0.25;100.00;98984.94;5042257;28;20035;-62
2021/11/25 01:42:29;;;;;;;23.67;14.50;;;;;;;0.31;100.00;98983.38;5042437;28;20021;-62
2021/11/25 01:44:55;;;;;;;28.30;16.10;;;;;;;0.35;99.81;98979.34;5042498;28;20087;-63
2021/11/25 01:47:20;;;;;;;22.63;15.40;;;;;;;0.30;99.85;98977.28;5041491;28;20051;-62
2021/11/25 01:49:46;;;;;;;28.23;15.93;;;;;;;0.27;100.00;98963.63;5041822;28;20028;-62
2021/11/25 01:52:11;;;;;;;25.55;15.38;;;;;;;0.30;100.00;98965.91;5041463;28;20047;-62
2021/11/25 01:54:37;;;;;;;27.77;17.15;;;;;;;0.55;100.00;98953.25;5041708;28;20680;-63
2021/11/25 01:57:02;;;;;;;31.63;18.98;;;;;;;0.48;100.00;98949.72;5037375;28;20046;-62
2021/11/25 01:59:28;;;;;;;29.48;19.02;;;;;;;0.34;100.00;98946.09;5042048;28;20033;-63
2021/11/25 02:01:54;;;;;;;27.80;19.48;;;;;;;0.47;100.00;98943.59;5039308;28;20582;-63
2021/11/25 02:04:19;;;;;;;38.03;21.05;;;;;;;0.51;100.00;98936.97;5038840;28;20049;-62
2021/11/25 02:06:45;;;;;;;34.95;20.00;;;;;;;0.47;100.00;98935.69;5040509;28;20059;-62
2021/11/25 02:09:10;;;;;;;30.65;18.77;;;;;;;0.49;100.00;98932.88;5039672;28;20182;-63
2021/11/25 02:11:37;;;;;;;31.13;17.73;;;;;;;0.42;100.00;98922.25;5041170;28;20431;-63
2021/11/25 02:14:02;;;;;;;29.75;17.20;;;;;;;0.45;99.44;98923.69;5030055;28;20025;-63
2021/11/25 02:16:28;;;;;;;25.42;16.10;;;;;;;0.47;99.65;98925.16;5039855;28;20048;-63
2021/11/25 02:18:56;;;;;;;35.20;17.33;;;;;;;0.47;99.46;98929.63;5041317;28;20029;-63
2021/11/25 02:21:22;;;;;;;26.20;16.05;;;;;;;0.48;99.38;98933.91;5036003;28;20152;-63
2021/11/25 02:23:47;;;;;;;23.00;15.55;;;;;;;0.46;99.58;98939.34;5021610;28;20407;-63
2021/11/25 02:26:13;;;;;;;25.00;16.10;;;;;;;0.42;99.03;98928.38;5040639;28;20040;-62
2021/11/25 02:28:38;;;;;;;20.65;14.05;;;;;;;0.43;99.04;98939.72;5056365;28;20052;-63
2021/11/25 02:31:04;;;;;;;23.70;14.93;;;;;;;0.41;98.87;98937.25;5039856;28;20049;-63
2021/11/25 02:33:30;;;;;;;24.08;15.13;;;;;;;0.37;98.95;98940.44;5041162;28;20029;-62
2021/11/25 02:35:57;;;;;;;25.05;14.93;;;;;;;0.29;98.95;98937.91;5034435;28;20396;-62
2021/11/25 02:38:22;;;;;;;27.95;16.30;;;;;;;0.41;100.00;98941.72;5039344;28;20037;-63
2021/11/25 02:40:52;;;;;;;24.98;15.50;;;;;;;0.40;100.00;98934.78;5041214;28;20110;-63
2021/11/25 02:43:19;;;;;;;22.67;15.57;;;;;;;0.46;100.00;98928.81;5036720;28;20036;-62
2021/11/25 02:45:51;;;;;;;25.85;16.27;;;;;;;0.62;100.00;98928.59;5037725;28;20073;-62
2021/11/25 02:48:19;;;;;;;28.23;16.35;;;;;;;0.66;100.00;98923.75;5041046;28;20108;-63
2021/11/25 02:50:45;;;;;;;26.08;15.82;;;;;;;0.59;100.00;98923.69;5041092;28;20134;-62
2021/11/25 02:53:11;;;;;;;25.00;15.85;;;;;;;0.55;99.79;98922.44;5039885;28;20021;-62
2021/11/25 02:55:36;;;;;;;29.77;15.98;;;;;;;0.55;99.38;98925.06;5037692;28;20045;-63
2021/11/25 02:58:02;;;;;;;20.90;14.43;;;;;;;0.57;100.00;98917.75;5039390;28;20380;-63
2021/11/25 03:00:36;;;;;;;22.90;15.32;;;;;;;0.44;99.71;98909.72;5040640;28;20052;-63
2021/11/25 03:03:07;;;;;;;26.27;15.98;;;;;;;0.49;99.94;98912.59;5041787;28;20024;-63
2021/11/25 03:05:33;;;;;;;23.88;14.40;;;;;;;0.47;100.00;98917.25;5039349;28;20494;-62
2021/11/25 03:08:06;;;;;;;28.05;16.92;;;;;;;0.60;100.00;98913.94;5041327;28;20060;-63
2021/11/25 03:10:42;;;;;;;24.17;15.63;;;;;;;0.53;100.00;98908.59;5040397;28;20053;-63
2021/11/25 03:13:08;;;;;;;22.85;15.13;;;;;;;0.48;100.00;98904.91;5041386;28;20631;-63
2021/11/25 03:15:34;;;;;;;25.85;16.02;;;;;;;0.47;99.96;98901.41;5040829;28;20880;-62
2021/11/25 03:18:00;;;;;;;24.38;15.65;;;;;;;0.43;99.74;98898.34;5032608;28;20064;-63
2021/11/25 03:20:25;;;;;;;24.08;15.25;;;;;;;0.41;100.00;98899.53;5039969;28;20049;-62
2021/11/25 03:22:51;;;;;;;22.88;14.98;;;;;;;0.45;100.00;98898.19;5044966;28;20029;-63
2021/11/25 03:25:17;;;;;;;26.40;15.00;;;;;;;0.48;100.00;98900.44;5040422;28;20025;-62
2021/11/25 03:27:42;;;;;;;28.52;15.52;;;;;;;0.48;100.00;98899.63;5040818;28;20603;-63
2021/11/25 03:30:08;;;;;;;21.02;14.38;;;;;;;0.42;100.00;98901.16;5041115;28;20029;-63
2021/11/25 03:32:34;;;;;;;22.33;14.68;;;;;;;0.38;99.95;98899.91;5040901;28;20468;-63
2021/11/25 03:34:59;;;;;;;25.40;15.52;;;;;;;0.35;99.95;98901.09;5039827;28;20017;-63
2021/11/25 03:37:25;;;;;;;26.35;15.23;;;;;;;0.32;100.00;98893.53;5031516;28;20065;-63
2021/11/25 03:39:51;;;;;;;24.20;14.23;;;;;;;0.28;100.00;98905.47;5040114;28;20688;-63
2021/11/25 03:42:16;;;;;;;24.05;15.43;;;;;;;0.44;100.00;98904.44;5040916;28;20054;-63
2021/11/25 03:44:44;;;;;;;21.23;14.93;;;;;;;0.40;100.00;98897.88;5038881;28;20045;-63
2021/11/25 03:47:10;;;;;;;23.23;15.85;;;;;;;0.35;100.00;98894.97;5043541;28;20102;-63
2021/11/25 03:49:35;;;;;;;25.30;16.13;;;;;;;0.34;100.00;98888.91;5037679;28;20033;-63
2021/11/25 03:52:01;;;;;;;22.02;15.32;;;;;;;0.47;100.00;98904.06;5043790;28;20069;-63
2021/11/25 03:54:27;;;;;;;22.67;15.00;;;;;;;0.41;100.00;98896.91;5042560;28;20043;-63
2021/11/25 03:56:52;;;;;;;23.80;14.57;;;;;;;0.33;100.00;98897.81;5042688;28;20072;-63
2021/11/25 03:59:18;;;;;;;21.48;14.85;;;;;;;0.35;100.00;98900.25;5044066;28;20064;-63
2021/11/25 04:01:43;;;;;;;24.33;15.75;;;;;;;0.23;100.00;98891.22;5043997;28;20064;-62
2021/11/25 04:04:10;;;;;;;24.15;14.38;;;;;;;0.26;100.00;98888.22;5033415;28;20112;-63
2021/11/25 04:06:36;;;;;;;26.65;15.50;;;;;;;0.28;100.00;98888.84;5040411;28;20118;-63
2021/11/25 04:09:01;;;;;;;25.85;16.15;;;;;;;0.24;100.00;98877.84;5044192;28;20021;-63
2021/11/25 04:11:27;;;;;;;23.80;16.33;;;;;;;0.29;100.00;98877.28;5030512;28;20046;-63
2021/11/25 04:13:53;;;;;;;27.48;16.23;;;;;;;0.26;100.00;98869.75;5042253;28;20540;-63
2021/11/25 04:16:18;;;;;;;27.17;16.02;;;;;;;0.36;100.00;98872.91;5043079;28;20044;-62
2021/11/25 04:18:44;;;;;;;22.65;15.15;;;;;;;0.37;100.00;98871.91;5043365;28;20029;-62
2021/11/25 04:21:09;;;;;;;25.63;15.95;;;;;;;0.41;100.00;98873.16;5039271;28;20111;-62
2021/11/25 04:23:35;;;;;;;23.88;15.75;;;;;;;0.39;100.00;98872.53;5040839;28;20592;-63
2021/11/25 04:26:00;;;;;;;26.65;15.63;;;;;;;0.42;100.00;98874.78;5042756;28;20052;-62
2021/11/25 04:28:26;;;;;;;20.70;14.90;;;;;;;0.37;100.00;98877.16;5043619;28;20090;-63
2021/11/25 04:35:27;;;;;;;21.83;15.15;;;;;;;0.29;100.00;98869.38;5043341;28;20526;-62
2021/11/25 04:36:21;;;;;;;22.27;14.93;;;;;;;0.30;100.00;98866.56;5032960;28;20068;-63
2021/11/25 04:38:46;;;;;;;25.60;16.85;;;;;;;0.34;100.00;98867.81;5042502;28;20527;-63
2021/11/25 04:41:12;;;;;;;27.13;16.05;;;;;;;0.36;100.00;98871.09;5042280;28;20077;-62
2021/11/25 04:43:37;;;;;;;23.27;14.98;;;;;;;0.39;100.00;98875.16;5041601;28;20044;-63
2021/11/25 04:46:05;;;;;;;26.98;17.10;;;;;;;0.39;100.00;98870.72;5041267;28;20527;-62
2021/11/25 04:48:30;;;;;;;27.88;16.17;;;;;;;0.41;100.00;98870.53;5036534;28;20032;-62
2021/11/25 04:50:56;;;;;;;24.42;15.50;;;;;;;0.41;100.00;98860.78;5042501;28;20055;-62
2021/11/25 04:53:22;;;;;;;25.77;15.52;;;;;;;0.39;100.00;98856.72;5041989;28;20422;-63
2021/11/25 04:55:47;;;;;;;23.02;15.13;;;;;;;0.37;100.00;98862.16;5040516;28;20041;-63
2021/11/25 04:58:13;;;;;;;22.42;14.60;;;;;;;0.39;100.00;98862.78;5039489;28;20400;-63
2021/11/25 05:00:39;;;;;;;25.02;15.73;;;;;;;0.35;100.00;98868.63;5041304;28;20080;-63
2021/11/25 05:03:05;;;;;;;29.58;16.45;;;;;;;0.35;100.00;98863.34;5043230;28;20036;-63
2021/11/25 05:05:30;;;;;;;25.23;15.95;;;;;;;0.35;100.00;98863.34;5042196;28;20041;-62
2021/11/25 05:07:56;;;;;;;30.52;17.10;;;;;;;0.31;100.00;98872.66;5043103;28;20315;-63
2021/11/25 05:10:21;;;;;;;31.83;18.23;;;;;;;0.48;100.00;98867.97;5041936;28;20049;-64
2021/11/25 05:12:47;;;;;;;25.02;16.45;;;;;;;0.36;100.00;98857.09;5039198;28;20039;-63
2021/11/25 05:15:13;;;;;;;26.50;16.45;;;;;;;0.29;100.00;98843.81;5037787;28;20131;-63
2021/11/25 05:17:39;;;;;;;26.45;17.27;;;;;;;0.21;100.00;98847.38;5039469;28;20157;-63
2021/11/25 05:20:06;;;;;;;28.70;17.08;;;;;;;0.24;100.00;98840.13;5042414;28;20479;-62
2021/11/25 05:22:31;;;;;;;25.00;17.40;;;;;;;0.23;100.00;98830.59;5042338;28;20634;-63
2021/11/25 05:24:57;;;;;;;28.58;16.50;;;;;;;0.23;100.00;98830.59;5042751;28;20089;-62
2021/11/25 05:27:23;;;;;;;27.15;17.45;;;;;;;0.19;100.00;98843.31;5042107;28;20116;-64
2021/11/25 05:29:48;;;;;;;27.60;17.65;;;;;;;0.26;100.00;98835.47;5042544;28;20032;-62
2021/11/25 05:32:16;;;;;;;34.03;19.13;;;;;;;0.25;100.00;98834.69;5040074;28;20032;-62
2021/11/25 05:34:42;;;;;;;27.63;17.67;;;;;;;0.33;100.00;98833.75;5039712;28;20045;-65
2021/11/25 05:37:08;;;;;;;29.65;18.42;;;;;;;0.48;100.00;98837.16;5041771;28;20044;-63
2021/11/25 05:39:33;;;;;;;28.38;19.15;;;;;;;0.46;100.00;98844.44;5042456;28;20031;-63
2021/11/25 05:41:59;;;;;;;32.15;17.60;;;;;;;0.48;100.00;98847.69;5041508;28;20064;-63
2021/11/25 05:44:24;;;;;;;26.42;17.75;;;;;;;0.47;100.00;98847.88;5034893;28;20033;-63
2021/11/25 05:46:50;;;;;;;30.85;18.13;;;;;;;0.46;100.00;98844.44;5027017;28;20037;-63
2021/11/25 05:49:15;;;;;;;31.90;18.83;;;;;;;0.46;100.00;98860.25;5035884;28;20029;-62
2021/11/25 05:51:41;;;;;;;28.52;17.42;;;;;;;0.50;100.00;98855.41;5041017;28;20477;-62
2021/11/25 05:54:06;;;;;;;26.30;15.93;;;;;;;0.50;100.00;98858.03;5042871;28;20035;-62
2021/11/25 05:56:32;;;;;;;30.98;18.60;;;;;;;0.41;100.00;98844.97;5042303;28;20090;-63
2021/11/25 05:58:58;;;;;;;26.83;16.52;;;;;;;0.40;100.00;98837.25;5027493;28;20032;-63
2021/11/25 06:01:24;;;;;;;26.77;16.98;;;;;;;0.47;100.00;98834.69;5025244;28;20042;-63
2021/11/25 06:03:52;;;;;;;28.65;17.67;;;;;;;0.38;100.00;98834.81;5036722;28;20660;-63
2021/11/25 06:06:17;;;;;;;27.83;16.85;;;;;;;0.36;100.00;98828.09;5034301;28;20036;-63
2021/11/25 06:08:43;;;;;;;30.27;17.73;;;;;;;0.40;100.00;98824.91;5041374;28;20036;-63
2021/11/25 06:11:08;;;;;;;29.55;18.48;;;;;;;0.39;100.00;98825.06;5040648;28;20132;-63
2021/11/25 06:13:34;;;;;;;32.38;18.02;;;;;;;0.26;100.00;98817.03;5038313;28;20033;-63
2021/11/25 06:15:59;;;;;;;31.42;18.63;;;;;;;0.33;100.00;98810.81;5031988;28;20131;-63
2021/11/25 06:18:25;;;;;;;30.42;19.15;;;;;;;0.41;100.00;98828.34;5034895;28;20139;-63
2021/11/25 06:20:51;;;;;;;29.02;18.75;;;;;;;0.44;100.00;98827.97;5038350;28;20041;-63
2021/11/25 06:23:17;;;;;;;31.63;18.95;;;;;;;0.52;100.00;98833.13;5035803;28;20064;-63
2021/11/25 06:25:43;;;;;;;36.25;19.90;;;;;;;0.63;100.00;98837.09;5032741;28;20045;-63
2021/11/25 06:28:10;;;;;;;39.55;21.05;;;;;;;0.59;100.00;98836.63;5031976;28;20071;-63
2021/11/25 06:30:35;;;;;;;31.30;18.90;;;;;;;0.69;100.00;98835.53;5038978;28;20052;-63
2021/11/25 06:33:01;;;;;;;34.88;19.77;;;;;;;0.64;100.00;98831.63;5038149;28;20106;-63
2021/11/25 06:35:26;;;;;;;32.50;19.88;;;;;;;0.62;99.61;98848.63;5038742;28;20049;-63
2021/11/25 06:37:53;;;;;;;28.92;19.48;;;;;;;0.68;99.69;98853.19;5037936;28;20060;-63
2021/11/25 06:40:21;;;;;;;36.50;20.58;;;;;;;0.63;99.26;98872.19;5039236;28;20052;-62
2021/11/25 06:42:47;;;;;;;28.50;19.10;;;;;;;0.68;99.62;98869.00;5036540;28;20122;-63
2021/11/25 06:45:13;;;;;;;27.17;17.35;;;;;;;0.66;100.00;98862.28;5036552;28;20712;-63
2021/11/25 06:47:38;;;;;;;27.27;16.88;;;;;;;0.70;100.00;98874.06;5001590;28;20030;-62
2021/11/25 06:50:09;;;;;;;26.70;17.48;;;;;;;0.67;100.00;98880.53;5035999;28;20094;-63
2021/11/25 06:52:34;;;;;;;32.40;17.27;;;;;;;0.57;100.00;98872.94;5032343;28;20032;-64
2021/11/25 06:55:00;;;;;;;37.80;18.25;;;;;;;0.58;100.00;98879.03;5030944;28;20041;-64
2021/11/25 06:57:26;;;;;;;35.25;20.00;;;;;;;0.55;100.00;98879.41;5036473;28;20158;-62
2021/11/25 06:59:52;;;;;;;27.10;17.60;;;;;;;0.57;100.00;98875.56;5041189;28;20028;-62
2021/11/25 07:02:17;;;;;;;31.20;18.73;;;;;;;0.61;100.00;98879.47;5028026;28;20057;-63
2021/11/25 07:04:42;;;;;;;31.35;19.17;;;;;;;0.73;100.00;98882.44;5031128;28;20525;-63
2021/11/25 07:07:08;;;;;;;30.52;18.95;;;;;;;0.73;100.00;98879.00;5035969;28;20099;-64
2021/11/25 07:09:33;;;;;;;32.15;17.80;;;;;;;0.69;100.00;98870.63;5041595;28;20371;-63
2021/11/25 07:11:59;;;;;;;36.50;21.30;;;;;;;0.60;100.00;98871.75;5031854;28;20124;-62
2021/11/25 07:14:25;;;;;;;42.17;22.88;;;;;;;0.53;100.00;98871.69;5034194;28;20344;-63
2021/11/25 07:16:50;;;;;;;34.70;21.27;;;;;;;0.56;100.00;98866.03;5034750;28;20033;-63
2021/11/25 07:19:16;;;;;;;34.00;20.23;;;;;;;0.55;100.00;98861.78;5043772;28;20104;-64
2021/11/25 07:21:41;;;;;;;38.03;19.98;;;;;;;0.63;100.00;98855.56;5040454;28;20041;-63
2021/11/25 07:24:07;;;;;;;35.72;19.55;;;;;;;0.46;100.00;98854.97;5039093;28;20473;-64
2021/11/25 07:26:32;;;;;;;33.58;21.20;;;;;;;0.86;100.00;98861.47;5037818;28;20615;-63
2021/11/25 07:28:58;;;;;;;36.72;20.70;;;;;;;0.76;100.00;98863.59;5045857;28;20419;-63
2021/11/25 07:31:33;;;;;;;43.65;22.38;;;;;;;0.90;100.00;98859.28;5047018;28;20052;-64
2021/11/25 07:33:59;;;;;;;43.85;21.50;;;;;;;0.94;100.00;98857.88;5045164;28;20458;-63
2021/11/25 07:36:24;;;;;;;36.08;21.50;;;;;;;0.94;99.48;98852.59;5040368;28;20107;-62
2021/11/25 07:38:50;;;;;;;37.97;21.33;;;;;;;0.93;99.92;98853.63;5046212;28;20753;-63
2021/11/25 07:41:16;;;;;;;36.28;21.55;;;;;;;0.93;100.00;98850.97;5039363;28;20072;-65
2021/11/25 07:43:41;;;;;;;37.67;22.75;;;;;;;1.06;100.00;98847.63;5050112;28;20118;-64
2021/11/25 07:46:07;;;;;;;38.63;21.88;;;;;;;1.05;100.00;98849.47;5039976;28;20372;-64
2021/11/25 07:48:33;;;;;;;49.28;24.08;;;;;;;1.05;100.00;98854.75;5042817;28;20025;-62
2021/11/25 07:50:59;;;;;;;43.65;22.20;;;;;;;1.07;99.79;98850.09;5045747;28;20048;-62
2021/11/25 07:53:25;;;;;;;49.63;23.13;;;;;;;1.10;99.86;98850.69;5043949;28;20039;-63
2021/11/25 07:55:50;;;;;;;42.25;22.60;;;;;;;1.01;99.60;98853.47;5041698;28;20129;-63
2021/11/25 07:58:16;;;;;;;40.35;22.23;;;;;;;1.12;100.00;98851.31;5047326;28;20064;-62
2021/11/25 08:00:41;;;;;;;46.03;21.65;;;;;;;1.08;99.28;98851.72;5041647;28;20040;-64
2021/11/25 08:03:07;;;;;;;31.85;19.80;;;;;;;1.32;100.00;98859.41;5046585;28;20020;-62
2021/11/25 08:05:32;;;;;;;39.50;22.17;;;;;;;1.29;99.37;98864.06;5043140;28;20072;-65
2021/11/25 08:07:58;;;;;;;39.80;22.00;;;;;;;1.34;99.42;98863.50;5047084;28;20068;-63
2021/11/25 08:10:25;;;;;;;34.25;22.15;;;;;;;1.25;98.35;98859.38;5036895;28;20367;-63
2021/11/25 08:12:51;;;;;;;40.15;20.13;;;;;;;1.34;99.01;98874.06;5032059;28;20130;-64
2021/11/25 08:15:16;;;;;;;41.88;21.13;;;;;;;1.40;98.91;98865.38;5038940;28;20419;-64
2021/11/25 08:17:42;;;;;;;39.10;20.88;;;;;;;1.44;99.22;98869.25;5034562;28;20600;-63
2021/11/25 08:20:08;;;;;;;36.53;18.42;;;;;;;1.34;98.64;98865.31;5041400;28;20431;-63
2021/11/25 08:22:34;;;;;;;34.13;19.08;;;;;;;1.32;99.15;98870.78;5035993;28;20036;-63
2021/11/25 08:25:01;;;;;;;38.30;19.75;;;;;;;1.32;98.87;98864.69;5043841;28;20123;-64
2021/11/25 08:27:27;;;;;;;34.65;20.45;;;;;;;1.25;98.80;98872.56;5039178;28;20053;-63
2021/11/25 08:29:53;;;;;;;35.00;19.92;;;;;;;1.12;98.84;98872.44;5043164;28;20136;-63
2021/11/25 08:32:18;;;;;;;33.72;20.58;;;;;;;1.27;98.48;98883.75;5043200;28;20164;-63
2021/11/25 08:34:44;;;;;;;38.03;22.05;;;;;;;1.43;96.32;98890.59;5037568;28;20040;-63
2021/11/25 08:37:09;;;;;;;34.25;19.67;;;;;;;1.54;95.40;98894.50;5042270;28;20114;-63
2021/11/25 08:39:37;;;;;;;30.75;18.02;;;;;;;1.54;93.30;98892.69;5043744;28;20337;-64
2021/11/25 08:42:06;;;;;;;32.40;17.60;;;;;;;1.67;92.70;98894.59;5042761;28;20056;-63
2021/11/25 08:44:31;;;;;;;33.15;18.25;;;;;;;1.86;93.60;98885.19;5037693;28;20060;-63
2021/11/25 08:46:58;;;;;;;25.48;16.85;;;;;;;1.77;90.46;98878.41;5033240;28;20144;-63
2021/11/25 08:49:23;;;;;;;32.40;17.70;;;;;;;1.84;90.57;98868.69;5030954;28;20384;-62
2021/11/25 08:51:49;;;;;;;31.08;18.63;;;;;;;1.93;92.66;98868.34;5036360;28;20034;-62
2021/11/25 08:54:14;;;;;;;40.72;19.75;;;;;;;1.99;95.09;98872.03;5042093;28;20528;-63
2021/11/25 08:56:40;;;;;;;30.33;19.25;;;;;;;1.75;94.89;98875.97;5042704;28;20045;-62
2021/11/25 08:59:05;;;;;;;27.52;18.08;;;;;;;1.78;94.31;98872.13;5038180;28;20041;-63
2021/11/25 09:01:31;;;;;;;38.42;19.35;;;;;;;1.77;95.01;98867.84;5040992;28;20052;-63
2021/11/25 09:03:56;;;;;;;33.97;19.40;;;;;;;1.88;95.58;98873.41;5029004;28;20022;-62
2021/11/25 09:06:22;;;;;;;32.17;18.98;;;;;;;1.93;96.38;98868.34;5038664;28;20808;-62
2021/11/25 09:08:48;;;;;;;42.28;19.45;;;;;;;2.00;94.82;98873.69;5041870;28;20043;-61
2021/11/25 09:11:15;;;;;;;33.22;19.23;;;;;;;2.04;93.46;98879.38;5032821;28;20040;-62
2021/11/25 09:13:41;;;;;;;27.42;18.40;;;;;;;1.93;93.44;98884.19;5038325;28;20025;-62
2021/11/25 09:16:07;;;;;;;32.63;19.45;;;;;;;1.97;94.90;98883.81;5039490;28;20436;-62
2021/11/25 09:18:32;;;;;;;35.25;20.60;;;;;;;2.07;94.39;98882.47;5029017;28;20029;-62
2021/11/25 09:20:58;;;;;;;32.45;18.80;;;;;;;2.01;93.02;98879.78;5033897;28;20069;-62
2021/11/25 09:23:24;;;;;;;33.97;18.38;;;;;;;2.04;92.06;98884.66;5040282;28;20049;-62
2021/11/25 09:25:50;;;;;;;31.20;18.48;;;;;;;2.18;91.74;98883.72;5041129;28;20761;-64
2021/11/25 09:28:24;;;;;;;30.52;17.55;;;;;;;2.38;91.39;98886.44;5036146;28;20379;-63
2021/11/25 09:30:49;;;;;;;32.55;19.55;;;;;;;2.43;91.90;98888.50;5036566;28;20045;-63
2021/11/25 09:33:15;;;;;;;35.80;21.65;;;;;;;2.44;91.58;98888.28;5030840;28;20060;-63
2021/11/25 09:35:41;;;;;;;35.13;19.92;;;;;;;2.41;94.02;98890.53;5035423;28;20070;-63
2021/11/25 09:38:08;;;;;;;30.45;19.13;;;;;;;2.49;93.80;98893.00;5037954;28;20033;-63
2021/11/25 09:40:33;;;;;;;30.38;18.75;;;;;;;2.44;93.76;98895.41;5035405;28;20049;-64
2021/11/25 09:43:04;;;;;;;30.50;18.98;;;;;;;2.35;92.47;98900.88;5035234;28;20112;-63
2021/11/25 09:45:30;;;;;;;28.85;16.77;;;;;;;2.48;94.08;98897.47;5039610;28;20756;-64
2021/11/25 09:48:00;;;;;;;33.80;18.55;;;;;;;2.48;91.96;98904.59;5033759;28;20105;-63
2021/11/25 09:50:27;;;;;;;29.10;17.35;;;;;;;2.44;91.55;98906.00;5033108;28;20537;-63
2021/11/25 09:52:54;;;;;;;31.02;18.05;;;;;;;2.46;91.15;98910.06;5041883;28;20422;-63
2021/11/25 09:55:19;;;;;;;24.83;16.38;;;;;;;2.52;90.28;98903.16;5033327;28;20036;-63
2021/11/25 09:57:45;;;;;;;26.50;16.58;;;;;;;2.59;89.88;98909.31;5038480;28;20591;-63
2021/11/25 10:00:11;;;;;;;27.00;16.48;;;;;;;2.58;89.72;98905.84;5037601;28;20040;-63
2021/11/25 10:02:36;;;;;;;24.95;15.65;;;;;;;2.63;89.16;98905.25;5036558;28;20136;-63
2021/11/25 10:05:02;;;;;;;26.35;16.13;;;;;;;2.63;88.62;98910.56;5039504;28;20118;-63
2021/11/25 10:07:32;;;;;;;31.58;16.05;;;;;;;2.73;87.91;98915.47;5036718;28;20033;-63
2021/11/25 10:09:57;;;;;;;27.02;17.15;;;;;;;2.80;87.71;98919.75;5035286;28;20041;-63
2021/11/25 10:12:36;;;;;;;29.05;16.65;;;;;;;2.78;86.92;98924.44;5039780;28;20072;-63
2021/11/25 10:15:26;;;;;;;25.52;15.07;;;;;;;2.89;87.29;98930.97;5035570;28;20068;-62
2021/11/25 10:17:52;;;;;;;23.67;15.05;;;;;;;2.90;86.00;98937.09;5041295;28;20048;-64
2021/11/25 10:20:20;;;;;;;21.25;14.63;;;;;;;2.87;84.51;98933.03;5036189;28;20028;-63
2021/11/25 10:23:01;;;;;;;22.48;14.25;;;;;;;2.87;84.21;98927.72;5035513;28;20028;-64
2021/11/25 10:25:39;;;;;;;22.70;13.70;;;;;;;3.04;83.30;98925.50;5040719;28;20132;-62
2021/11/25 10:28:05;;;;;;;18.90;11.23;;;;;;;3.24;83.22;98915.78;5040643;28;20056;-62
2021/11/25 10:30:34;;;;;;;17.50;11.98;;;;;;;3.34;80.79;98903.94;5039775;28;20045;-62
2021/11/25 10:33:00;;;;;;;17.27;11.85;;;;;;;3.50;79.14;98903.56;5034611;28;20029;-63
2021/11/25 10:35:30;;;;;;;17.55;11.45;;;;;;;3.63;81.43;98906.19;5038395;28;20045;-62
2021/11/25 10:40:26;;;;;;;16.25;10.82;;;;;;;3.57;76.70;98887.63;5038305;28;20058;-63
2021/11/25 10:42:52;;;;;;;15.52;11.93;;;;;;;4.31;74.60;98884.59;5041723;28;20032;-63
2021/11/25 10:45:18;;;;;;;18.98;11.90;;;;;;;4.52;73.90;98875.53;5041160;28;20021;-62
2021/11/25 10:47:57;;;;;;;21.58;12.50;;;;;;;4.23;78.38;98873.41;5040716;28;20136;-63
2021/11/25 10:50:22;;;;;;;17.77;12.50;;;;;;;4.34;75.69;98880.72;5040104;28;20049;-62
2021/11/25 10:52:49;;;;;;;21.00;15.45;;;;;;;4.27;73.67;98880.75;5041418;28;20133;-64
2021/11/25 10:55:14;;;;;;;19.35;12.38;;;;;;;4.62;74.68;98863.63;5041135;28;20089;-62
2021/11/25 10:57:43;;;;;;;24.95;17.00;;;;;;;4.26;73.34;98862.38;5041324;28;20079;-62
2021/11/25 11:00:23;;;;;;;56.42;34.63;;;;;;;4.40;72.51;98861.31;5041011;28;20033;-62
2021/11/25 11:02:49;;;;;;;;;;;;;;;4.41;71.66;98846.19;5042143;28;20090;-61
2021/11/25 11:05:21;;;;;;;24.23;14.27;;;;;;;4.35;72.27;98839.91;5037789;28;19921;-63
2021/11/25 11:07:47;;;;;;;19.35;12.93;;;;;;;3.71;72.54;98838.88;5036307;28;20029;-63
2021/11/25 11:10:31;;;;;;;11.90;8.98;;;;;;;4.23;73.57;98836.28;5041350;28;20098;-63
2021/11/25 11:15:28;;;;;;;14.27;10.15;;;;;;;3.78;73.10;98836.22;5040233;28;20057;-63
2021/11/25 11:20:24;;;;;;;;;;;;;;;4.15;72.38;98839.19;5038827;28;20128;-63
2021/11/25 11:23:00;;;;;;;13.52;10.48;;;;;;;4.36;69.39;98830.91;5040347;28;19927;-63
2021/11/25 11:25:26;;;;;;;12.30;8.77;;;;;;;4.02;69.53;98832.91;5040461;28;20048;-62
2021/11/25 11:27:54;;;;;;;12.30;8.05;;;;;;;4.30;68.77;98832.56;5040865;28;20445;-63